createdAt,value
2018-05-26T00:02:02.469Z,41.80
2018-05-26T00:04:32.183Z,41.70
2018-05-26T00:07:01.256Z,41.68
2018-05-26T00:09:30.044Z,42.36
2018-05-26T00:11:58.961Z,42.27
2018-05-26T00:14:28.884Z,42.87
2018-05-26T00:16:58.420Z,42.28
2018-05-26T00:19:27.234Z,42.63
2018-05-26T00:21:56.022Z,42.79
2018-05-26T00:24:24.922Z,42.83
2018-05-26T00:26:54.852Z,42.50
2018-05-26T00:29:23.827Z,42.51
2018-05-26T00:31:52.202Z,42.27
2018-05-26T00:34:21.273Z,42.63
2018-05-26T00:36:49.870Z,42.59
2018-05-26T00:39:18.687Z,42.43
2018-05-26T00:41:47.666Z,42.76
2018-05-26T00:44:17.294Z,42.33
2018-05-26T00:46:47.539Z,42.34
2018-05-26T00:49:16.050Z,42.32
2018-05-26T00:51:44.878Z,42.08
2018-05-26T00:54:13.878Z,42.34
2018-05-26T00:56:44.109Z,42.25
2018-05-26T00:59:14.385Z,42.47
2018-05-26T01:01:43.108Z,42.03
2018-05-26T01:04:12.053Z,42.10
2018-05-26T01:06:42.925Z,42.53
2018-05-26T01:09:11.709Z,42.67
2018-05-26T01:11:42.392Z,42.68
2018-05-26T01:14:11.143Z,42.89
2018-05-26T01:16:40.466Z,42.82
2018-05-26T01:19:10.476Z,42.61
2018-05-26T01:21:39.300Z,43.09
2018-05-26T01:24:08.153Z,43.50
2018-05-26T01:26:37.032Z,44.20
2018-05-26T01:29:05.991Z,43.98
2018-05-26T01:31:35.507Z,43.88
2018-05-26T01:34:03.883Z,43.33
2018-05-26T01:36:32.292Z,43.09
2018-05-26T01:39:02.700Z,43.15
2018-05-26T01:41:31.080Z,43.25
2018-05-26T01:44:01.260Z,43.13
2018-05-26T01:46:30.228Z,43.09
2018-05-26T01:48:59.294Z,43.48
2018-05-26T01:51:27.863Z,43.79
2018-05-26T01:53:56.230Z,43.97
2018-05-26T01:56:24.690Z,44.84
2018-05-26T01:58:53.407Z,44.94
2018-05-26T02:01:22.195Z,44.76
2018-05-26T02:03:51.000Z,44.78
2018-05-26T02:06:19.906Z,45.07
2018-05-26T02:08:48.384Z,45.11
2018-05-26T02:11:18.327Z,44.91
2018-05-26T02:13:47.966Z,44.87
2018-05-26T02:16:17.813Z,44.80
2018-05-26T02:18:46.724Z,44.88
2018-05-26T02:21:15.104Z,45.17
2018-05-26T02:23:44.354Z,45.87
2018-05-26T02:26:12.793Z,45.78
2018-05-26T02:28:41.952Z,45.16
2018-05-26T02:31:10.911Z,45.48
2018-05-26T02:33:39.733Z,46.20
2018-05-26T02:36:08.663Z,45.69
2018-05-26T02:38:37.038Z,46.14
2018-05-26T02:41:06.177Z,45.61
2018-05-26T02:43:35.001Z,46.23
2018-05-26T02:46:05.259Z,45.72
2018-05-26T02:48:34.656Z,46.00
2018-05-26T02:51:03.062Z,45.33
2018-05-26T02:53:32.308Z,45.31
2018-05-26T02:56:00.967Z,45.92
2018-05-26T02:58:30.470Z,46.31
2018-05-26T03:00:59.508Z,46.56
2018-05-26T03:03:28.051Z,46.80
2018-05-26T03:06:03.027Z,46.91
2018-05-26T03:08:38.371Z,46.35
2018-05-26T03:11:12.776Z,45.86
2018-05-26T03:13:47.572Z,45.61
2018-05-26T03:16:27.164Z,45.55
2018-05-26T03:18:56.648Z,45.94
2018-05-26T03:21:25.358Z,45.74
2018-05-26T03:23:55.285Z,46.11
2018-05-26T03:26:24.646Z,46.35
2018-05-26T03:28:53.438Z,45.56
2018-05-26T03:31:23.066Z,45.81
2018-05-26T03:33:52.031Z,45.11
2018-05-26T03:36:21.931Z,45.98
2018-05-26T03:38:50.528Z,44.89
2018-05-26T03:41:19.917Z,44.86
2018-05-26T03:43:49.167Z,44.52
2018-05-26T03:46:17.876Z,44.04
2018-05-26T03:48:47.875Z,43.95
2018-05-26T03:51:16.500Z,43.70
2018-05-26T03:53:45.316Z,43.46
2018-05-26T03:56:31.974Z,43.29
2018-05-26T03:59:18.743Z,43.29
2018-05-26T04:01:47.908Z,43.24
2018-05-26T04:04:16.349Z,42.62
2018-05-26T04:06:45.848Z,42.39
2018-05-26T04:09:14.779Z,41.07
2018-05-26T04:11:44.132Z,38.64
2018-05-26T04:14:13.117Z,35.99
2018-05-26T04:16:43.231Z,33.49
2018-05-26T04:19:13.557Z,31.69
2018-05-26T04:21:42.055Z,30.47
2018-05-26T04:24:11.216Z,30.51
2018-05-26T04:26:40.551Z,29.55
2018-05-26T04:29:09.734Z,28.95
2018-05-26T04:31:40.060Z,27.90
2018-05-26T04:34:08.838Z,27.61
2018-05-26T04:36:38.657Z,28.00
2018-05-26T04:39:07.593Z,27.50
2018-05-26T04:41:36.435Z,26.23
2018-05-26T04:44:04.937Z,26.08
2018-05-26T04:46:35.038Z,26.10
2018-05-26T04:49:04.090Z,25.42
2018-05-26T04:51:32.567Z,24.08
2018-05-26T04:54:01.176Z,23.94
2018-05-26T04:56:29.902Z,23.35
2018-05-26T04:58:59.971Z,23.80
2018-05-26T05:01:29.199Z,23.60
2018-05-26T05:03:57.602Z,24.27
2018-05-26T05:06:27.440Z,24.03
2018-05-26T05:08:57.040Z,24.13
2018-05-26T05:11:27.514Z,25.69
2018-05-26T05:13:56.160Z,25.19
2018-05-26T05:16:25.002Z,24.68
2018-05-26T05:18:53.733Z,25.18
2018-05-26T05:21:22.276Z,24.89
2018-05-26T05:23:52.249Z,24.55
2018-05-26T05:26:20.797Z,23.90
2018-05-26T05:28:49.656Z,22.95
2018-05-26T05:31:18.868Z,22.47
2018-05-26T05:33:49.039Z,22.48
2018-05-26T05:36:17.640Z,22.11
2018-05-26T05:38:46.446Z,22.13
2018-05-26T05:41:16.093Z,22.80
2018-05-26T05:43:45.848Z,23.09
2018-05-26T05:46:14.806Z,22.66
2018-05-26T05:48:43.640Z,22.39
2018-05-26T05:51:13.728Z,21.71
2018-05-26T05:53:42.437Z,21.87
2018-05-26T05:56:11.807Z,22.03
2018-05-26T05:58:42.309Z,21.50
2018-05-26T06:01:11.172Z,21.45
2018-05-26T06:03:40.335Z,22.01
2018-05-26T06:06:09.048Z,20.96
2018-05-26T06:08:38.384Z,19.66
2018-05-26T06:11:07.604Z,18.73
2018-05-26T06:13:36.312Z,18.38
2018-05-26T06:16:05.137Z,17.32
2018-05-26T06:18:33.666Z,17.37
2018-05-26T06:21:02.660Z,16.76
2018-05-26T06:23:32.547Z,16.97
2018-05-26T06:26:02.363Z,16.17
2018-05-26T06:28:32.625Z,15.71
2018-05-26T06:31:01.113Z,14.81
2018-05-26T06:33:30.372Z,13.89
2018-05-26T06:36:00.088Z,13.49
2018-05-26T06:38:30.486Z,13.60
2018-05-26T06:41:01.074Z,13.19
2018-05-26T06:43:29.554Z,13.70
2018-05-26T06:45:58.164Z,14.64
2018-05-26T06:48:28.240Z,14.71
2018-05-26T06:50:57.193Z,14.67
2018-05-26T06:53:26.989Z,13.94
2018-05-26T06:55:55.565Z,13.18
2018-05-26T06:58:23.956Z,13.51
2018-05-26T07:00:52.671Z,13.66
2018-05-26T07:03:21.534Z,12.91
2018-05-26T07:05:51.417Z,12.88
2018-05-26T07:08:19.787Z,12.50
2018-05-26T07:10:49.109Z,12.49
2018-05-26T07:13:17.733Z,12.63
2018-05-26T07:15:46.145Z,11.78
2018-05-26T07:18:14.572Z,11.28
2018-05-26T07:20:43.810Z,11.89
2018-05-26T07:23:12.641Z,11.88
2018-05-26T07:25:41.041Z,12.37
2018-05-26T07:28:10.636Z,12.61
2018-05-26T07:30:39.222Z,12.42
2018-05-26T07:33:07.806Z,11.76
2018-05-26T07:35:37.296Z,11.80
2018-05-26T07:38:05.768Z,11.60
2018-05-26T07:40:35.146Z,12.12
2018-05-26T07:43:03.682Z,11.52
2018-05-26T07:45:32.864Z,11.38
2018-05-26T07:48:02.106Z,12.03
2018-05-26T07:50:31.285Z,11.51
2018-05-26T07:53:00.968Z,10.98
